createdAt,value
2018-11-03T00:00:19.079Z,4
2018-11-03T00:02:18.857Z,4
2018-11-03T00:04:18.621Z,4.4
2018-11-03T00:06:18.696Z,3.8
2018-11-03T00:08:19.530Z,4.4
2018-11-03T00:10:18.918Z,5.1
2018-11-03T00:12:18.676Z,4.5
2018-11-03T00:14:19.469Z,5.1
2018-11-03T00:16:18.573Z,4.5
2018-11-03T00:18:19.404Z,5.4
2018-11-03T00:20:18.509Z,4.5
2018-11-03T00:22:19.236Z,4.3
2018-11-03T00:24:18.990Z,4.3
2018-11-03T00:26:19.080Z,4.7
2018-11-03T00:28:18.837Z,4.3
2018-11-03T00:30:19.228Z,5.2
2018-11-03T00:32:18.975Z,5.2
2018-11-03T00:34:18.717Z,4.3
2018-11-03T00:36:18.683Z,5.1
2018-11-03T00:38:19.471Z,4.4
2018-11-03T00:40:19.292Z,4.4
2018-11-03T00:42:19.043Z,4.4
2018-11-03T00:44:18.796Z,5.1
2018-11-03T00:46:18.889Z,4.8
2018-11-03T00:48:18.644Z,4.3
2018-11-03T00:50:18.941Z,4.5
2018-11-03T00:52:18.683Z,5.5
2018-11-03T00:54:19.419Z,4.7
2018-11-03T00:56:19.430Z,4.9
2018-11-03T00:58:19.183Z,4.6
2018-11-03T01:00:18.639Z,4.9
2018-11-03T01:02:19.397Z,4.5
2018-11-03T01:04:19.196Z,5.4
2018-11-03T01:06:19.374Z,4.6
2018-11-03T01:08:19.141Z,4.6
2018-11-03T01:10:18.969Z,5
2018-11-03T01:12:18.770Z,5.2
2018-11-03T01:14:18.549Z,3.9
2018-11-03T01:16:19.100Z,4.4
2018-11-03T01:18:18.964Z,4.2
2018-11-03T01:20:18.699Z,4
2018-11-03T01:22:19.425Z,4.7
2018-11-03T01:24:19.247Z,4.9
2018-11-03T01:26:18.932Z,4.5
2018-11-03T01:28:18.689Z,5
2018-11-03T01:30:19.440Z,4
2018-11-03T01:32:19.280Z,4.3
2018-11-03T01:34:19.118Z,4.5
2018-11-03T01:36:18.580Z,5.5
2018-11-03T01:38:19.349Z,3.8
2018-11-03T01:40:19.162Z,3.7
2018-11-03T01:42:18.928Z,4.6
2018-11-03T01:44:18.664Z,4.9
2018-11-03T01:46:19.366Z,4.3
2018-11-03T01:48:19.132Z,5.4
2018-11-03T01:50:18.521Z,4.5
2018-11-03T01:52:19.277Z,4.5
2018-11-03T01:54:19.055Z,4.3
2018-11-03T01:56:19.149Z,5.3
2018-11-03T01:58:18.935Z,5.5
2018-11-03T02:00:19.234Z,5.2
2018-11-03T02:02:18.967Z,6.6
2018-11-03T02:04:18.723Z,5.3
2018-11-03T02:06:19.120Z,4.9
2018-11-03T02:08:18.845Z,5.6
2018-11-03T02:10:18.499Z,5.6
2018-11-03T02:12:19.287Z,5.7
2018-11-03T02:14:19.021Z,5.3
2018-11-03T02:16:18.589Z,5.3
2018-11-03T02:18:19.429Z,5.6
2018-11-03T02:20:19.255Z,5.6
2018-11-03T02:22:19.113Z,5
2018-11-03T02:24:18.873Z,5.7
2018-11-03T02:26:18.521Z,5.3
2018-11-03T02:28:19.278Z,4.5
2018-11-03T02:30:19.110Z,5.6
2018-11-03T02:32:18.704Z,5.5
2018-11-03T02:34:19.470Z,4.6
2018-11-03T02:36:18.611Z,4.4
2018-11-03T02:38:19.408Z,4.9
2018-11-03T02:40:18.606Z,4.9
2018-11-03T02:42:19.389Z,5.1
2018-11-03T02:44:19.152Z,5.3
2018-11-03T02:46:19.237Z,4.7
2018-11-03T02:48:19.002Z,4.5
2018-11-03T02:50:18.829Z,5.3
2018-11-03T02:52:18.558Z,5.8
2018-11-03T02:54:19.316Z,5.8
2018-11-03T02:56:18.797Z,6
2018-11-03T02:58:18.528Z,5.6
2018-11-03T03:00:19.300Z,5.6
2018-11-03T03:02:19.050Z,6.3
2018-11-03T03:04:18.773Z,6.5
2018-11-03T03:06:19.355Z,6.1
2018-11-03T03:08:19.099Z,5.2
2018-11-03T03:10:19.317Z,5.6
2018-11-03T03:12:19.090Z,5.1
2018-11-03T03:14:18.821Z,4.8
2018-11-03T03:16:18.520Z,5.7
2018-11-03T03:18:19.380Z,6.2
2018-11-03T03:20:19.115Z,6
2018-11-03T03:22:18.890Z,7.1
2018-11-03T03:24:18.667Z,4.8
2018-11-03T03:26:18.669Z,6
2018-11-03T03:28:19.401Z,6.2
2018-11-03T03:30:19.179Z,6.5
2018-11-03T03:32:18.682Z,6.2
2018-11-03T03:34:19.447Z,6.1
2018-11-03T03:36:21.013Z,5.4
2018-11-03T03:38:18.829Z,6.9
2018-11-03T03:40:19.121Z,6.6
2018-11-03T03:42:18.907Z,5.8
2018-11-03T03:44:18.673Z,6.1
2018-11-03T03:46:19.235Z,6.7
2018-11-03T03:48:18.996Z,6
2018-11-03T03:50:18.770Z,6.3
2018-11-03T03:52:18.549Z,6.2
2018-11-03T03:54:19.306Z,4.7
2018-11-03T03:56:19.516Z,5.3
2018-11-03T03:58:19.323Z,5.2
2018-11-03T04:00:19.218Z,6.7
2018-11-03T04:02:19.005Z,7.2
2018-11-03T04:04:18.765Z,6.1
2018-11-03T04:06:19.349Z,6.7
2018-11-03T04:08:19.148Z,6.3
2018-11-03T04:10:19.350Z,6.7
2018-11-03T04:12:19.102Z,6.5
2018-11-03T04:14:18.855Z,6.3
2018-11-03T04:16:18.938Z,6.6
2018-11-03T04:18:18.744Z,6.3
2018-11-03T04:20:18.987Z,5.9
2018-11-03T04:22:18.749Z,6.4
2018-11-03T04:24:18.511Z,6.1
2018-11-03T04:26:18.879Z,6.4
2018-11-03T04:28:18.626Z,6
2018-11-03T04:30:19.442Z,7.4
2018-11-03T04:32:19.222Z,6.1
2018-11-03T04:34:18.979Z,6.5
2018-11-03T04:36:19.075Z,6.6
2018-11-03T04:38:18.853Z,6.5
2018-11-03T04:40:19.098Z,7
2018-11-03T04:42:18.719Z,6.4
2018-11-03T04:44:18.481Z,5.2
2018-11-03T04:46:18.898Z,6.6
2018-11-03T04:48:18.657Z,6.9
2018-11-03T04:50:19.437Z,6
2018-11-03T04:52:19.232Z,6
2018-11-03T04:54:19.019Z,6.7
2018-11-03T04:56:19.155Z,7.1
2018-11-03T04:58:18.898Z,6.5
2018-11-03T05:00:18.685Z,6.8
2018-11-03T05:02:19.441Z,6.6
2018-11-03T05:04:19.208Z,6
2018-11-03T05:06:19.291Z,6.7
2018-11-03T05:08:19.042Z,7.6
2018-11-03T05:10:19.366Z,6.7
2018-11-03T05:12:19.501Z,7.7
2018-11-03T05:14:19.260Z,7.5
2018-11-03T05:16:18.521Z,7.1
2018-11-03T05:18:19.343Z,7
2018-11-03T05:20:18.624Z,6.6
2018-11-03T05:22:19.346Z,7.3
2018-11-03T05:24:19.121Z,7.8
2018-11-03T05:26:19.169Z,7
2018-11-03T05:28:18.947Z,7.4
2018-11-03T05:30:19.340Z,8.1
2018-11-03T05:32:19.094Z,7.7
2018-11-03T05:34:18.836Z,6.9
2018-11-03T05:36:19.086Z,7.5
2018-11-03T05:38:18.859Z,7.2
2018-11-03T05:40:18.915Z,7.5
2018-11-03T05:42:18.663Z,7.9
2018-11-03T05:44:19.436Z,8.5
2018-11-03T05:46:18.635Z,6.9
2018-11-03T05:48:19.436Z,7.8
2018-11-03T05:50:18.673Z,6
2018-11-03T05:52:19.398Z,8.2
2018-11-03T05:54:19.126Z,7.6
2018-11-03T05:56:18.624Z,8
2018-11-03T05:58:19.356Z,7.9
2018-11-03T06:00:18.566Z,7.9
2018-11-03T06:02:19.308Z,7.1
2018-11-03T06:04:19.034Z,7.1
2018-11-03T06:06:18.543Z,7.8
2018-11-03T06:08:19.314Z,7.8
2018-11-03T06:10:18.579Z,7.3
2018-11-03T06:12:19.347Z,7.4
2018-11-03T06:14:19.058Z,6.8
2018-11-03T06:16:19.108Z,8.5
2018-11-03T06:18:18.962Z,7
2018-11-03T06:20:18.729Z,7.7
2018-11-03T06:22:19.492Z,8.5
2018-11-03T06:24:19.382Z,7.8
2018-11-03T06:26:18.561Z,6.9
2018-11-03T06:28:19.307Z,7.7
2018-11-03T06:30:19.074Z,6.9
2018-11-03T06:32:18.879Z,6.3
2018-11-03T06:34:18.647Z,7.1
2018-11-03T06:36:19.372Z,7.8
2018-11-03T06:38:19.157Z,8.1
2018-11-03T06:40:19.438Z,7
2018-11-03T06:42:19.192Z,6.6
2018-11-03T06:44:18.925Z,7
2018-11-03T06:46:19.454Z,7.4
2018-11-03T06:48:19.426Z,7
2018-11-03T06:50:19.226Z,7.8
2018-11-03T06:52:19.071Z,5.6
2018-11-03T06:54:18.999Z,7.6
2018-11-03T06:56:19.027Z,6.7
2018-11-03T06:58:18.804Z,7.3
2018-11-03T07:00:18.644Z,7.2
2018-11-03T07:02:19.399Z,7.1
2018-11-03T07:04:19.173Z,7.2
2018-11-03T07:06:19.459Z,7.9
2018-11-03T07:08:19.203Z,7.3
2018-11-03T07:10:19.533Z,6.8
2018-11-03T07:12:19.436Z,6.7
2018-11-03T07:14:18.550Z,6.3
2018-11-03T07:16:19.080Z,8.3
2018-11-03T07:18:18.900Z,7.5
2018-11-03T07:20:18.647Z,7.9
2018-11-03T07:22:19.380Z,7.5
2018-11-03T07:24:19.117Z,7.4
2018-11-03T07:26:18.734Z,6.6
2018-11-03T07:28:19.475Z,7.2
2018-11-03T07:30:18.677Z,7.9
2018-11-03T07:32:19.454Z,7.1
2018-11-03T07:34:19.244Z,7.6
2018-11-03T07:36:18.963Z,8.4
2018-11-03T07:38:18.705Z,7
2018-11-03T07:40:19.468Z,7.6
2018-11-03T07:42:19.362Z,7.3
2018-11-03T07:44:19.145Z,7.9
2018-11-03T07:46:19.352Z,8.4
2018-11-03T07:48:19.274Z,7.8
2018-11-03T07:50:19.463Z,7.4
2018-11-03T07:52:19.235Z,6.8
2018-11-03T07:54:18.993Z,7.8
2018-11-03T07:56:18.611Z,7.2
2018-11-03T07:58:19.388Z,7.2
2018-11-03T08:00:19.257Z,7
2018-11-03T08:02:19.160Z,8.7
2018-11-03T08:04:18.901Z,6.7
2018-11-03T08:06:18.624Z,7.6
2018-11-03T08:08:18.711Z,7.5
2018-11-03T08:10:18.962Z,7.7
2018-11-03T08:12:18.724Z,7.5
2018-11-03T08:14:18.516Z,7.8
2018-11-03T08:16:18.570Z,7.9
2018-11-03T08:18:18.624Z,7.3
2018-11-03T08:20:19.424Z,7.8
2018-11-03T08:22:19.161Z,8.9
2018-11-03T08:24:18.938Z,8
2018-11-03T08:26:18.654Z,7.4
2018-11-03T08:28:19.432Z,7.5
2018-11-03T08:30:19.195Z,8.3
2018-11-03T08:32:18.938Z,8.8
2018-11-03T08:34:18.677Z,8
2018-11-03T08:36:19.230Z,7.9
2018-11-03T08:38:18.993Z,8
2018-11-03T08:40:19.294Z,7.8
2018-11-03T08:42:19.034Z,8.7
2018-11-03T08:44:18.770Z,7.1
2018-11-03T08:46:19.301Z,8.1
2018-11-03T08:48:19.247Z,8.6
2018-11-03T08:50:19.348Z,7.4
2018-11-03T08:52:18.861Z,8.2
2018-11-03T08:54:18.628Z,8.2
2018-11-03T08:56:19.356Z,8.5
2018-11-03T08:58:19.117Z,8.4
2018-11-03T09:00:18.994Z,9.5
2018-11-03T09:02:19.127Z,9.1
2018-11-03T09:04:18.915Z,7.8
2018-11-03T09:06:19.368Z,9.6
2018-11-03T09:08:19.102Z,8.4
2018-11-03T09:10:19.457Z,8.1
2018-11-03T09:12:19.228Z,8.3
2018-11-03T09:14:19.009Z,8.7
2018-11-03T09:16:18.511Z,8.9
2018-11-03T09:18:19.305Z,8.8
2018-11-03T09:20:18.535Z,9.7
2018-11-03T09:22:19.290Z,8.8
2018-11-03T09:24:19.098Z,9.3
2018-11-03T09:26:18.818Z,9.1
2018-11-03T09:28:18.593Z,8.5
2018-11-03T09:30:18.897Z,9.5
2018-11-03T09:32:18.651Z,9.7
2018-11-03T09:34:19.405Z,9.4
2018-11-03T09:36:19.515Z,8.7
2018-11-03T09:38:19.280Z,9.8
2018-11-03T09:40:19.150Z,9.5
2018-11-03T09:42:18.937Z,9
2018-11-03T09:44:18.713Z,9.6
2018-11-03T09:46:18.582Z,9.6
2018-11-03T09:48:19.342Z,9
2018-11-03T09:50:18.623Z,9.4
2018-11-03T09:52:19.402Z,9.4
2018-11-03T09:54:19.142Z,9
2018-11-03T09:56:19.266Z,9.7
2018-11-03T09:58:19.085Z,10.1
2018-11-03T10:00:19.156Z,8.1
2018-11-03T10:02:18.880Z,9.5
2018-11-03T10:04:18.652Z,9.6
2018-11-03T10:06:18.990Z,7.7
2018-11-03T10:08:18.842Z,9.8
2018-11-03T10:10:19.235Z,9.4
2018-11-03T10:12:18.975Z,8.7
2018-11-03T10:14:18.762Z,9.6
2018-11-03T10:16:19.392Z,8.2
2018-11-03T10:18:19.232Z,8.2
2018-11-03T10:20:18.995Z,8.7
2018-11-03T10:22:18.861Z,8.8
2018-11-03T10:24:18.819Z,9.1
2018-11-03T10:26:18.867Z,8.5
2018-11-03T10:28:18.619Z,7.6
2018-11-03T10:30:19.447Z,8.1
2018-11-03T10:32:19.213Z,7.9
2018-11-03T10:34:18.991Z,7.8
2018-11-03T10:36:19.498Z,8.7
2018-11-03T10:38:19.269Z,8.5
2018-11-03T10:40:18.613Z,8.8
2018-11-03T10:42:19.405Z,7.1
2018-11-03T10:44:19.360Z,8.5
2018-11-03T10:46:19.123Z,7.9
2018-11-03T10:48:19.012Z,7.5
2018-11-03T10:50:18.810Z,6.9
2018-11-03T10:52:18.574Z,7.8
2018-11-03T10:54:19.347Z,7.8
2018-11-03T10:56:18.729Z,7.3
2018-11-03T10:58:19.486Z,8.8
2018-11-03T11:00:19.258Z,9.1
2018-11-03T11:02:19.030Z,8.6
2018-11-03T11:04:18.812Z,7.8
2018-11-03T11:06:19.234Z,7.5
2018-11-03T11:08:18.988Z,7.9
2018-11-03T11:10:19.211Z,7.2
2018-11-03T11:12:19.013Z,7.4
2018-11-03T11:14:18.981Z,8
2018-11-03T11:16:18.978Z,8
2018-11-03T11:18:19.050Z,5.7
2018-11-03T11:20:18.819Z,7.3
2018-11-03T11:22:18.579Z,6.7
2018-11-03T11:24:19.565Z,5.3
2018-11-03T11:26:19.075Z,6.6
2018-11-03T11:28:18.884Z,6.2
2018-11-03T11:30:18.642Z,6.4
2018-11-03T11:32:19.465Z,6.3
2018-11-03T11:34:19.213Z,6.4
2018-11-03T11:36:19.449Z,5.6
2018-11-03T11:38:19.242Z,5.3
2018-11-03T11:40:19.493Z,4.8
2018-11-03T11:42:18.807Z,4.5
2018-11-03T11:44:18.588Z,4.8
2018-11-03T11:46:18.592Z,5
2018-11-03T11:48:19.425Z,4.1
2018-11-03T11:50:19.180Z,4.3
2018-11-03T11:52:18.593Z,5.4
2018-11-03T11:54:19.371Z,5.6
2018-11-03T11:56:19.298Z,5.5
2018-11-03T11:58:19.106Z,5.5
2018-11-03T12:00:18.904Z,5.2
2018-11-03T12:02:18.963Z,5.2
2018-11-03T12:04:19.000Z,5.1
2018-11-03T12:06:19.318Z,4.9
2018-11-03T12:08:19.108Z,6
2018-11-03T12:10:19.530Z,6.2
2018-11-03T12:12:18.520Z,5.1
2018-11-03T12:14:19.307Z,5
2018-11-03T12:16:18.950Z,4.7
2018-11-03T12:18:19.087Z,5.1
2018-11-03T12:20:18.943Z,4.8
2018-11-03T12:22:18.703Z,4.6
2018-11-03T12:24:19.504Z,5.6
2018-11-03T12:26:19.006Z,5.3
2018-11-03T12:28:18.789Z,5.3
2018-11-03T12:30:18.557Z,5.6
2018-11-03T12:32:19.346Z,4.8
2018-11-03T12:34:19.154Z,5.3
2018-11-03T12:36:18.711Z,5.3
2018-11-03T12:38:19.515Z,5.5
2018-11-03T12:40:18.783Z,5.7
2018-11-03T12:42:18.583Z,5.3
2018-11-03T12:44:19.394Z,5.3
2018-11-03T12:46:18.616Z,5.9
2018-11-03T12:48:19.565Z,5.7
2018-11-03T12:50:18.692Z,5.3
2018-11-03T12:52:19.460Z,5.2
2018-11-03T12:54:19.251Z,5.9
2018-11-03T12:56:18.814Z,5.3
2018-11-03T12:58:18.596Z,5
2018-11-03T13:00:19.337Z,5.3
2018-11-03T13:02:19.083Z,4.9
2018-11-03T13:04:18.845Z,4.6
2018-11-03T13:06:19.298Z,6.2
2018-11-03T13:08:19.112Z,5.5
2018-11-03T13:10:19.338Z,5.2
2018-11-03T13:12:19.218Z,6.5
2018-11-03T13:14:19.275Z,5.4
2018-11-03T13:16:18.773Z,6.3
2018-11-03T13:18:18.626Z,5.4
2018-11-03T13:20:19.385Z,5.5
2018-11-03T13:22:19.179Z,5.3
2018-11-03T13:24:18.926Z,6.2
2018-11-03T13:26:19.130Z,7
2018-11-03T13:28:18.890Z,6.2
2018-11-03T13:30:18.778Z,5.2
2018-11-03T13:32:18.532Z,5.7
2018-11-03T13:34:19.290Z,5.3
2018-11-03T13:36:19.245Z,5.9
2018-11-03T13:38:19.052Z,4.7
2018-11-03T13:40:19.284Z,4.8
2018-11-03T13:42:19.377Z,5.4
2018-11-03T13:44:19.136Z,5.9
2018-11-03T13:46:18.614Z,4.6
2018-11-03T13:48:19.405Z,5
2018-11-03T13:50:19.151Z,6.2
2018-11-03T13:52:18.886Z,6.1
2018-11-03T13:54:18.674Z,5.2
2018-11-03T13:56:19.159Z,5.8
2018-11-03T13:58:18.931Z,5.2
2018-11-03T14:00:18.772Z,4.8
2018-11-03T14:02:18.522Z,5.8
2018-11-03T14:04:19.302Z,6
2018-11-03T14:06:19.127Z,5.6
2018-11-03T14:08:18.890Z,4.1
2018-11-03T14:10:19.134Z,5
2018-11-03T14:12:18.892Z,5
2018-11-03T14:14:18.673Z,6.3
2018-11-03T14:16:18.668Z,4.4
2018-11-03T14:18:18.520Z,5.9
2018-11-03T14:20:19.286Z,5.4
2018-11-03T14:22:19.005Z,5.6
2018-11-03T14:24:18.784Z,5.6
2018-11-03T14:26:19.179Z,5.1
2018-11-03T14:28:18.963Z,5.8
2018-11-03T14:30:18.738Z,4.9
2018-11-03T14:32:19.226Z,5.5
2018-11-03T14:34:19.002Z,5.2
2018-11-03T14:36:18.919Z,24.3
2018-11-03T14:38:18.800Z,10.5
2018-11-03T14:40:19.013Z,8.7
2018-11-03T14:42:18.792Z,8
2018-11-03T14:44:18.606Z,7.4
2018-11-03T14:46:19.464Z,7.1
2018-11-03T14:48:19.264Z,5.5
2018-11-03T14:50:19.035Z,6.4
2018-11-03T14:52:18.788Z,5.6
2018-11-03T14:54:18.563Z,5.7
2018-11-03T14:56:19.025Z,4.7
2018-11-03T14:58:18.893Z,5
2018-11-03T15:00:18.626Z,4.7
2018-11-03T15:02:19.402Z,4
2018-11-03T15:04:19.179Z,4.4
2018-11-03T15:06:18.724Z,3.6
2018-11-03T15:08:19.523Z,3.9
2018-11-03T15:10:18.846Z,4.3
2018-11-03T15:12:18.576Z,3.6
2018-11-03T15:14:19.594Z,4.8
2018-11-03T15:16:19.128Z,4.4
2018-11-03T15:18:18.985Z,4.6
2018-11-03T15:20:18.772Z,5.8
2018-11-03T15:22:19.395Z,4.7
2018-11-03T15:24:19.322Z,5.3
2018-11-03T15:26:19.217Z,4.9
2018-11-03T15:28:18.991Z,5
2018-11-03T15:30:18.756Z,4.6
2018-11-03T15:32:19.392Z,4.3
2018-11-03T15:34:19.286Z,4.7
2018-11-03T15:36:19.161Z,4.7
2018-11-03T15:38:18.932Z,4.1
2018-11-03T15:40:19.157Z,4.8
2018-11-03T15:42:18.889Z,4.5
2018-11-03T15:44:18.649Z,4.9
2018-11-03T15:46:18.685Z,4
2018-11-03T15:48:19.443Z,3.7
2018-11-03T15:50:19.206Z,3.4
2018-11-03T15:52:18.835Z,3.4
2018-11-03T15:54:18.574Z,3.4
2018-11-03T15:56:18.650Z,3.4
2018-11-03T15:58:19.432Z,3.7
2018-11-03T16:00:19.203Z,3.4
2018-11-03T16:02:18.993Z,2.9
2018-11-03T16:04:18.750Z,3.4
2018-11-03T16:06:19.236Z,3.5
2018-11-03T16:08:18.975Z,2.6
2018-11-03T16:10:19.272Z,4.4
2018-11-03T16:12:19.196Z,3.2
2018-11-03T16:14:19.392Z,3.1
2018-11-03T16:16:18.838Z,4.3
2018-11-03T16:18:18.670Z,3.8
2018-11-03T16:20:19.414Z,5.1
2018-11-03T16:22:19.155Z,4.6
2018-11-03T16:24:19.018Z,3.7
2018-11-03T16:26:19.010Z,5.2
2018-11-03T16:28:18.769Z,5.6
2018-11-03T16:30:18.648Z,6.6
2018-11-03T16:32:19.505Z,7.8
2018-11-03T16:34:18.638Z,7.5
2018-11-03T16:36:19.139Z,10
2018-11-03T16:38:18.959Z,8.9
2018-11-03T16:40:19.437Z,7.8
2018-11-03T16:42:19.201Z,7.8
2018-11-03T16:44:18.978Z,8.7
2018-11-03T16:46:18.516Z,8.2
2018-11-03T16:48:19.295Z,7
2018-11-03T16:50:19.071Z,6.8
2018-11-03T16:52:18.813Z,6.3
2018-11-03T16:54:18.679Z,5.8
2018-11-03T16:56:19.178Z,7.8
2018-11-03T16:58:18.946Z,6.4
2018-11-03T17:00:18.738Z,5.9
2018-11-03T17:02:19.499Z,5.4
2018-11-03T17:04:19.257Z,7.1
2018-11-03T17:06:19.275Z,6.1
2018-11-03T17:08:19.040Z,5.1
2018-11-03T17:10:19.316Z,6
2018-11-03T17:12:19.292Z,6
2018-11-03T17:14:19.115Z,5.3
2018-11-03T17:16:19.490Z,5.9
2018-11-03T17:18:19.362Z,6.2
2018-11-03T17:20:19.115Z,5.1
2018-11-03T17:22:18.874Z,6
2018-11-03T17:24:18.626Z,6
2018-11-03T17:26:18.581Z,5.2
2018-11-03T17:28:19.362Z,5.4
2018-11-03T17:30:19.106Z,6.5
2018-11-03T17:32:18.852Z,5.5
2018-11-03T17:34:18.601Z,5.7
2018-11-03T17:36:18.687Z,6.4
2018-11-03T17:38:18.568Z,5.2
2018-11-03T17:40:18.799Z,5.9
2018-11-03T17:42:19.042Z,5
2018-11-03T17:44:18.849Z,6.3
2018-11-03T17:46:19.083Z,6.2
2018-11-03T17:48:18.842Z,6.1
2018-11-03T17:50:18.765Z,6.7
2018-11-03T17:52:18.559Z,7
2018-11-03T17:54:19.357Z,6.8
2018-11-03T17:56:19.369Z,7.5
2018-11-03T17:58:19.109Z,9.8
2018-11-03T18:00:18.956Z,9.3
2018-11-03T18:02:19.103Z,9.9
2018-11-03T18:04:18.883Z,9.7
2018-11-03T18:06:19.397Z,9.6
2018-11-03T18:08:19.385Z,10.3
2018-11-03T18:10:18.634Z,10.3
2018-11-03T18:12:19.399Z,10
2018-11-03T18:14:19.115Z,9.9
2018-11-03T18:16:19.183Z,10.7
2018-11-03T18:18:18.982Z,9.5
2018-11-03T18:20:18.795Z,9.1
2018-11-03T18:22:18.520Z,8.2
2018-11-03T18:24:19.300Z,9.6
2018-11-03T18:26:18.949Z,9.1
2018-11-03T18:28:19.017Z,9
2018-11-03T18:30:18.758Z,8.1
2018-11-03T18:32:18.496Z,10
2018-11-03T18:34:19.277Z,8.7
2018-11-03T18:36:19.482Z,7.1
2018-11-03T18:38:19.241Z,6.8
2018-11-03T18:40:19.466Z,7.8
2018-11-03T18:42:19.222Z,7.3
2018-11-03T18:44:18.950Z,6.8
2018-11-03T18:46:18.664Z,7.6
2018-11-03T18:48:19.396Z,6.6
2018-11-03T18:50:19.129Z,6.4
2018-11-03T18:52:18.912Z,8.3
2018-11-03T18:54:18.706Z,8
2018-11-03T18:56:18.751Z,9
2018-11-03T18:58:18.500Z,7.3
2018-11-03T19:00:19.251Z,8.6
2018-11-03T19:02:19.057Z,8.4
2018-11-03T19:04:18.888Z,9.5
2018-11-03T19:06:19.393Z,9.1
2018-11-03T19:08:19.138Z,7.7
2018-11-03T19:10:19.370Z,7.5
2018-11-03T19:12:19.135Z,8.9
2018-11-03T19:14:18.883Z,7.4
2018-11-03T19:16:18.885Z,8
2018-11-03T19:18:18.742Z,7.8
2018-11-03T19:20:18.503Z,8.3
2018-11-03T19:22:19.247Z,8.8
2018-11-03T19:24:19.155Z,8.8
2018-11-03T19:26:18.817Z,8.1
2018-11-03T19:28:18.576Z,7.8
2018-11-03T19:30:19.355Z,7
2018-11-03T19:32:19.321Z,7.2
2018-11-03T19:34:19.109Z,6.8
2018-11-03T19:36:19.242Z,7.7
2018-11-03T19:38:18.984Z,5.9
2018-11-03T19:40:19.207Z,5.6
2018-11-03T19:42:19.004Z,5.7
2018-11-03T19:44:18.774Z,6.1
2018-11-03T19:46:19.259Z,5.9
2018-11-03T19:48:19.069Z,6.5
2018-11-03T19:50:19.019Z,5.9
2018-11-03T19:52:18.760Z,7.4
2018-11-03T19:54:18.500Z,7.4
2018-11-03T19:56:19.073Z,7.2
2018-11-03T19:58:18.854Z,8.9
2018-11-03T20:00:18.593Z,12.2
2018-11-03T20:02:19.420Z,10.2
2018-11-03T20:04:19.173Z,10.1
2018-11-03T20:06:19.215Z,8.3
2018-11-03T20:08:18.957Z,9.4
2018-11-03T20:10:19.184Z,9.4
2018-11-03T20:12:18.942Z,8
2018-11-03T20:14:18.705Z,7.7
2018-11-03T20:16:18.744Z,7.7
2018-11-03T20:18:18.612Z,8.1
2018-11-03T20:20:19.392Z,9
2018-11-03T20:22:19.142Z,7.7
2018-11-03T20:24:18.928Z,8
2018-11-03T20:26:18.750Z,8
2018-11-03T20:28:18.906Z,7.7
2018-11-03T20:30:18.673Z,8.5
2018-11-03T20:32:19.418Z,7.2
2018-11-03T20:34:19.186Z,7.8
2018-11-03T20:36:19.287Z,7.3
2018-11-03T20:38:19.038Z,6.9
2018-11-03T20:40:19.274Z,6.4
2018-11-03T20:42:19.013Z,6.5
2018-11-03T20:44:18.752Z,6
2018-11-03T20:46:19.443Z,7.6
2018-11-03T20:48:19.224Z,6.5
2018-11-03T20:50:19.000Z,6.3
2018-11-03T20:52:18.759Z,7.1
2018-11-03T20:54:18.493Z,7.6
2018-11-03T20:56:19.044Z,7
2018-11-03T20:58:18.825Z,7.2
2018-11-03T21:00:18.580Z,6.7
2018-11-03T21:02:19.371Z,7.8
2018-11-03T21:04:19.107Z,8.1
2018-11-03T21:06:18.609Z,7
2018-11-03T21:08:19.468Z,7.5
2018-11-03T21:10:18.728Z,6.8
2018-11-03T21:12:19.492Z,5.9
2018-11-03T21:14:19.245Z,7
2018-11-03T21:16:18.775Z,7.1
2018-11-03T21:18:18.636Z,7.7
2018-11-03T21:20:19.449Z,7.2
2018-11-03T21:22:19.196Z,7.6
2018-11-03T21:24:19.027Z,8.3
2018-11-03T21:26:19.395Z,8.8
2018-11-03T21:28:19.116Z,10.5
2018-11-03T21:30:18.881Z,10
2018-11-03T21:32:19.026Z,12.8
2018-11-03T21:34:19.210Z,11.1
2018-11-03T21:36:19.204Z,10.7
2018-11-03T21:38:19.046Z,9.7
2018-11-03T21:40:18.551Z,12.6
2018-11-03T21:42:19.119Z,11.1
2018-11-03T21:44:18.865Z,10.4
2018-11-03T21:46:18.540Z,11.5
2018-11-03T21:48:19.364Z,11.5
2018-11-03T21:50:19.087Z,9.2
2018-11-03T21:52:18.835Z,9.6
2018-11-03T21:54:18.591Z,10.5
2018-11-03T21:56:18.569Z,11.1
2018-11-03T21:58:19.331Z,10.4
2018-11-03T22:00:19.091Z,11.6
2018-11-03T22:02:18.802Z,10.9
2018-11-03T22:04:18.554Z,10.7
2018-11-03T22:06:19.123Z,11.3
2018-11-03T22:08:19.101Z,11
2018-11-03T22:10:19.303Z,10.5
2018-11-03T22:12:19.045Z,11.3
2018-11-03T22:14:18.795Z,11.3
2018-11-03T22:16:18.822Z,11
2018-11-03T22:18:18.662Z,11.5
2018-11-03T22:20:19.448Z,10.5
2018-11-03T22:22:19.183Z,10.3
2018-11-03T22:24:18.931Z,11.9
2018-11-03T22:26:18.997Z,10.3
2018-11-03T22:28:18.732Z,11.8
2018-11-03T22:30:18.507Z,12
2018-11-03T22:32:19.225Z,11.2
2018-11-03T22:34:18.979Z,11.9
2018-11-03T22:36:19.138Z,12.3
2018-11-03T22:38:18.903Z,11.5
2018-11-03T22:40:19.164Z,12
2018-11-03T22:42:18.996Z,12.2
2018-11-03T22:44:18.767Z,12.3
2018-11-03T22:46:19.261Z,15.3
2018-11-03T22:48:19.005Z,14.8
2018-11-03T22:50:18.750Z,16.3
2018-11-03T22:52:18.525Z,13.2
2018-11-03T22:54:19.271Z,12.6
2018-11-03T22:56:19.262Z,13.4
2018-11-03T22:58:19.003Z,13.5
2018-11-03T23:00:18.769Z,16
2018-11-03T23:02:18.505Z,13.2
2018-11-03T23:04:19.237Z,12
2018-11-03T23:06:19.373Z,13.8
2018-11-03T23:08:19.127Z,14
2018-11-03T23:10:19.323Z,12.8
2018-11-03T23:12:19.066Z,13.7
2018-11-03T23:14:18.883Z,13.8
2018-11-03T23:16:19.351Z,12.5
2018-11-03T23:18:19.158Z,14
2018-11-03T23:20:18.892Z,13.1
2018-11-03T23:22:18.726Z,14.9
2018-11-03T23:24:18.756Z,14.7
2018-11-03T23:26:18.769Z,13.9
2018-11-03T23:28:18.518Z,15.3
2018-11-03T23:30:19.449Z,14.6
2018-11-03T23:32:19.173Z,14.8
2018-11-03T23:34:18.923Z,16.1
2018-11-03T23:36:19.415Z,14.4
2018-11-03T23:38:19.169Z,14.7
2018-11-03T23:40:19.374Z,12.8
2018-11-03T23:42:19.125Z,14.5
2018-11-03T23:44:18.871Z,14
2018-11-03T23:46:19.350Z,12.8
2018-11-03T23:48:19.084Z,11
2018-11-03T23:50:18.919Z,13.2
2018-11-03T23:52:18.683Z,12
2018-11-03T23:54:19.422Z,12.3
2018-11-03T23:56:19.444Z,12.7
2018-11-03T23:58:19.196Z,13.8
